Springhill, Canada
Current Conditions -  °F | °C
As of 1:00 AM on Thursday 18 Dec 2014 (Local Time) from CYQM Reporting Station
Moderate Rain Moderate Rain  
Wind Chill: 21°   Ceiling: 300
Heat Index: 32°   Visibility: 10mi
Dew Point: 32°   Wind: 17mph
Humidity: 100%   Direction: 30°NNE
Pressure: 29.59"   Gusts: NA
Location:  45.65°N, 64.06°W
Report Text: CYQM 180500Z 03015KT 10SM RA OVC003 00/M00 A2959 RMK SF8 PRESFR SLP023
Loading
Personal Weather Stations






























Interactive Weather Map New forecast layout! Learn more

10-Day Weather Forecast

Advertisements
Track Severe Weather on mobile